sensor_id;sensor_type;location;lat;lon;timestamp;P1;durP1;ratioP1;P2;durP2;ratioP2
18360;SDS011;9308;48.550;9.108;2022-12-10T00:00:21;63.10;;;43.80;;
18360;SDS011;9308;48.550;9.108;2022-12-10T00:02:46;64.20;;;45.00;;
18360;SDS011;9308;48.550;9.108;2022-12-10T00:05:12;66.23;;;44.83;;
18360;SDS011;9308;48.550;9.108;2022-12-10T00:07:37;64.63;;;45.13;;
18360;SDS011;9308;48.550;9.108;2022-12-10T00:10:04;62.47;;;43.63;;
18360;SDS011;9308;48.550;9.108;2022-12-10T00:12:30;63.20;;;43.53;;
18360;SDS011;9308;48.550;9.108;2022-12-10T00:14:55;62.90;;;43.97;;
18360;SDS011;9308;48.550;9.108;2022-12-10T00:17:21;61.97;;;44.40;;
18360;SDS011;9308;48.550;9.108;2022-12-10T00:19:47;59.67;;;42.40;;
18360;SDS011;9308;48.550;9.108;2022-12-10T00:22:13;61.60;;;43.97;;
18360;SDS011;9308;48.550;9.108;2022-12-10T00:24:39;68.40;;;42.10;;
18360;SDS011;9308;48.550;9.108;2022-12-10T00:27:04;59.40;;;40.67;;
18360;SDS011;9308;48.550;9.108;2022-12-10T00:29:30;60.83;;;42.60;;
18360;SDS011;9308;48.550;9.108;2022-12-10T00:31:55;67.60;;;45.47;;
18360;SDS011;9308;48.550;9.108;2022-12-10T00:34:21;63.53;;;44.93;;
18360;SDS011;9308;48.550;9.108;2022-12-10T00:36:47;63.77;;;41.93;;
18360;SDS011;9308;48.550;9.108;2022-12-10T00:39:18;60.50;;;41.93;;
18360;SDS011;9308;48.550;9.108;2022-12-10T00:41:46;64.57;;;43.70;;
18360;SDS011;9308;48.550;9.108;2022-12-10T00:44:12;63.50;;;43.60;;
18360;SDS011;9308;48.550;9.108;2022-12-10T00:46:38;64.53;;;44.30;;
18360;SDS011;9308;48.550;9.108;2022-12-10T00:49:04;62.27;;;43.27;;
18360;SDS011;9308;48.550;9.108;2022-12-10T00:51:30;66.10;;;43.40;;
18360;SDS011;9308;48.550;9.108;2022-12-10T00:53:56;63.93;;;43.13;;
18360;SDS011;9308;48.550;9.108;2022-12-10T00:56:27;65.70;;;43.10;;
18360;SDS011;9308;48.550;9.108;2022-12-10T00:58:55;70.57;;;45.20;;
18360;SDS011;9308;48.550;9.108;2022-12-10T01:04:02;63.07;;;43.57;;
18360;SDS011;9308;48.550;9.108;2022-12-10T01:06:31;64.00;;;44.73;;
18360;SDS011;9308;48.550;9.108;2022-12-10T01:09:02;64.13;;;44.57;;
18360;SDS011;9308;48.550;9.108;2022-12-10T01:11:31;75.20;;;44.50;;
18360;SDS011;9308;48.550;9.108;2022-12-10T01:13:59;69.73;;;47.57;;
18360;SDS011;9308;48.550;9.108;2022-12-10T01:16:26;69.87;;;44.27;;
18360;SDS011;9308;48.550;9.108;2022-12-10T01:18:53;71.90;;;47.33;;
18360;SDS011;9308;48.550;9.108;2022-12-10T01:21:19;76.43;;;48.10;;
18360;SDS011;9308;48.550;9.108;2022-12-10T01:23:46;64.70;;;45.30;;
18360;SDS011;9308;48.550;9.108;2022-12-10T01:26:15;59.07;;;42.87;;
18360;SDS011;9308;48.550;9.108;2022-12-10T01:28:43;70.40;;;44.20;;
18360;SDS011;9308;48.550;9.108;2022-12-10T01:31:13;60.17;;;43.03;;
18360;SDS011;9308;48.550;9.108;2022-12-10T01:33:42;61.80;;;43.73;;
18360;SDS011;9308;48.550;9.108;2022-12-10T01:38:34;59.10;;;43.60;;
18360;SDS011;9308;48.550;9.108;2022-12-10T01:41:01;61.77;;;42.90;;
18360;SDS011;9308;48.550;9.108;2022-12-10T01:43:26;65.43;;;43.77;;
18360;SDS011;9308;48.550;9.108;2022-12-10T01:45:52;63.93;;;43.43;;
18360;SDS011;9308;48.550;9.108;2022-12-10T01:48:18;62.67;;;42.60;;
18360;SDS011;9308;48.550;9.108;2022-12-10T01:50:44;65.13;;;44.33;;
18360;SDS011;9308;48.550;9.108;2022-12-10T01:53:11;60.00;;;44.20;;
18360;SDS011;9308;48.550;9.108;2022-12-10T01:55:48;66.30;;;43.30;;
18360;SDS011;9308;48.550;9.108;2022-12-10T01:58:16;64.20;;;43.57;;
18360;SDS011;9308;48.550;9.108;2022-12-10T02:00:46;63.60;;;42.40;;
18360;SDS011;9308;48.550;9.108;2022-12-10T02:03:23;58.47;;;41.93;;
18360;SDS011;9308;48.550;9.108;2022-12-10T02:06:45;57.57;;;41.17;;
18360;SDS011;9308;48.550;9.108;2022-12-10T02:11:40;59.90;;;43.00;;
18360;SDS011;9308;48.550;9.108;2022-12-10T02:14:29;60.37;;;41.83;;
18360;SDS011;9308;48.550;9.108;2022-12-10T02:17:07;62.00;;;43.07;;
18360;SDS011;9308;48.550;9.108;2022-12-10T02:19:59;56.43;;;40.13;;
18360;SDS011;9308;48.550;9.108;2022-12-10T02:23:01;60.20;;;42.20;;
18360;SDS011;9308;48.550;9.108;2022-12-10T02:25:36;58.97;;;41.50;;
18360;SDS011;9308;48.550;9.108;2022-12-10T02:30:48;59.03;;;42.07;;
18360;SDS011;9308;48.550;9.108;2022-12-10T02:33:16;58.50;;;40.97;;
18360;SDS011;9308;48.550;9.108;2022-12-10T02:35:44;61.80;;;42.80;;
18360;SDS011;9308;48.550;9.108;2022-12-10T02:38:22;59.40;;;41.97;;
18360;SDS011;9308;48.550;9.108;2022-12-10T02:40:52;65.00;;;44.30;;
18360;SDS011;9308;48.550;9.108;2022-12-10T02:43:22;60.00;;;43.47;;
18360;SDS011;9308;48.550;9.108;2022-12-10T02:45:49;57.33;;;42.20;;
18360;SDS011;9308;48.550;9.108;2022-12-10T02:48:15;65.20;;;44.00;;
18360;SDS011;9308;48.550;9.108;2022-12-10T02:50:43;61.10;;;42.17;;
18360;SDS011;9308;48.550;9.108;2022-12-10T02:53:09;67.17;;;45.40;;
18360;SDS011;9308;48.550;9.108;2022-12-10T02:58:37;62.53;;;43.80;;
18360;SDS011;9308;48.550;9.108;2022-12-10T03:01:16;62.90;;;43.83;;
18360;SDS011;9308;48.550;9.108;2022-12-10T03:03:44;60.97;;;42.80;;
18360;SDS011;9308;48.550;9.108;2022-12-10T03:06:30;58.13;;;41.27;;
18360;SDS011;9308;48.550;9.108;2022-12-10T03:09:05;63.00;;;43.83;;
18360;SDS011;9308;48.550;9.108;2022-12-10T03:11:33;60.17;;;41.93;;
18360;SDS011;9308;48.550;9.108;2022-12-10T03:14:02;60.87;;;41.87;;
18360;SDS011;9308;48.550;9.108;2022-12-10T03:16:33;58.67;;;41.67;;
18360;SDS011;9308;48.550;9.108;2022-12-10T03:19:02;57.33;;;40.97;;
18360;SDS011;9308;48.550;9.108;2022-12-10T03:21:31;58.57;;;41.90;;
18360;SDS011;9308;48.550;9.108;2022-12-10T03:23:59;58.93;;;40.87;;
18360;SDS011;9308;48.550;9.108;2022-12-10T03:26:25;57.97;;;43.20;;
18360;SDS011;9308;48.550;9.108;2022-12-10T03:28:56;55.80;;;39.97;;
18360;SDS011;9308;48.550;9.108;2022-12-10T03:31:27;55.17;;;41.17;;
18360;SDS011;9308;48.550;9.108;2022-12-10T03:33:54;54.87;;;39.93;;
18360;SDS011;9308;48.550;9.108;2022-12-10T03:36:19;53.33;;;41.37;;
18360;SDS011;9308;48.550;9.108;2022-12-10T03:38:46;51.10;;;37.90;;
18360;SDS011;9308;48.550;9.108;2022-12-10T03:41:11;52.90;;;38.77;;
18360;SDS011;9308;48.550;9.108;2022-12-10T03:43:48;48.70;;;37.33;;
18360;SDS011;9308;48.550;9.108;2022-12-10T03:46:15;47.83;;;36.50;;
18360;SDS011;9308;48.550;9.108;2022-12-10T03:48:41;48.50;;;37.60;;
18360;SDS011;9308;48.550;9.108;2022-12-10T03:51:06;49.50;;;36.70;;
18360;SDS011;9308;48.550;9.108;2022-12-10T03:53:32;54.30;;;37.80;;
18360;SDS011;9308;48.550;9.108;2022-12-10T03:55:57;52.60;;;39.17;;
18360;SDS011;9308;48.550;9.108;2022-12-10T03:58:23;48.20;;;38.33;;
18360;SDS011;9308;48.550;9.108;2022-12-10T04:00:48;50.90;;;38.40;;
18360;SDS011;9308;48.550;9.108;2022-12-10T04:03:14;46.63;;;36.23;;
18360;SDS011;9308;48.550;9.108;2022-12-10T04:05:39;44.33;;;36.47;;
18360;SDS011;9308;48.550;9.108;2022-12-10T04:08:05;48.63;;;37.70;;
18360;SDS011;9308;48.550;9.108;2022-12-10T04:10:34;48.83;;;36.30;;
18360;SDS011;9308;48.550;9.108;2022-12-10T04:13:00;51.10;;;37.97;;
18360;SDS011;9308;48.550;9.108;2022-12-10T04:15:48;52.03;;;38.10;;
18360;SDS011;9308;48.550;9.108;2022-12-10T04:18:32;47.93;;;35.80;;
18360;SDS011;9308;48.550;9.108;2022-12-10T04:20:58;49.00;;;36.70;;
18360;SDS011;9308;48.550;9.108;2022-12-10T04:23:42;52.37;;;38.20;;
18360;SDS011;9308;48.550;9.108;2022-12-10T04:26:26;49.23;;;36.60;;
18360;SDS011;9308;48.550;9.108;2022-12-10T04:29:10;44.80;;;36.30;;
18360;SDS011;9308;48.550;9.108;2022-12-10T04:31:35;52.80;;;37.70;;
18360;SDS011;9308;48.550;9.108;2022-12-10T04:34:01;50.57;;;37.23;;
18360;SDS011;9308;48.550;9.108;2022-12-10T04:36:26;48.80;;;37.60;;
18360;SDS011;9308;48.550;9.108;2022-12-10T04:38:52;50.57;;;36.97;;
18360;SDS011;9308;48.550;9.108;2022-12-10T04:41:17;52.87;;;38.17;;
18360;SDS011;9308;48.550;9.108;2022-12-10T04:43:42;46.87;;;36.73;;
18360;SDS011;9308;48.550;9.108;2022-12-10T04:46:08;55.60;;;39.07;;
18360;SDS011;9308;48.550;9.108;2022-12-10T04:48:34;47.57;;;36.90;;
18360;SDS011;9308;48.550;9.108;2022-12-10T04:51:00;54.13;;;39.07;;
18360;SDS011;9308;48.550;9.108;2022-12-10T04:53:25;50.93;;;38.53;;
18360;SDS011;9308;48.550;9.108;2022-12-10T04:55:51;56.37;;;40.00;;
18360;SDS011;9308;48.550;9.108;2022-12-10T04:58:17;50.90;;;38.10;;
18360;SDS011;9308;48.550;9.108;2022-12-10T05:00:42;48.87;;;37.60;;
18360;SDS011;9308;48.550;9.108;2022-12-10T05:03:08;55.27;;;38.60;;
18360;SDS011;9308;48.550;9.108;2022-12-10T05:05:34;51.27;;;38.10;;
18360;SDS011;9308;48.550;9.108;2022-12-10T05:07:59;53.67;;;39.73;;
18360;SDS011;9308;48.550;9.108;2022-12-10T05:10:25;52.67;;;38.47;;
18360;SDS011;9308;48.550;9.108;2022-12-10T05:12:51;51.50;;;38.03;;
18360;SDS011;9308;48.550;9.108;2022-12-10T05:15:17;49.27;;;38.07;;
18360;SDS011;9308;48.550;9.108;2022-12-10T05:17:42;48.70;;;37.37;;
18360;SDS011;9308;48.550;9.108;2022-12-10T05:20:08;53.00;;;39.20;;
18360;SDS011;9308;48.550;9.108;2022-12-10T05:22:34;48.30;;;37.60;;
18360;SDS011;9308;48.550;9.108;2022-12-10T05:25:18;47.10;;;37.37;;
18360;SDS011;9308;48.550;9.108;2022-12-10T05:27:44;52.83;;;37.67;;
18360;SDS011;9308;48.550;9.108;2022-12-10T05:30:09;51.80;;;39.40;;
18360;SDS011;9308;48.550;9.108;2022-12-10T05:32:36;52.40;;;40.30;;
18360;SDS011;9308;48.550;9.108;2022-12-10T05:35:01;51.23;;;38.10;;
18360;SDS011;9308;48.550;9.108;2022-12-10T05:37:27;47.97;;;38.20;;
18360;SDS011;9308;48.550;9.108;2022-12-10T05:39:53;47.53;;;37.80;;
18360;SDS011;9308;48.550;9.108;2022-12-10T05:42:19;49.57;;;37.80;;
18360;SDS011;9308;48.550;9.108;2022-12-10T05:44:45;51.73;;;38.30;;
18360;SDS011;9308;48.550;9.108;2022-12-10T05:47:10;47.20;;;36.73;;
18360;SDS011;9308;48.550;9.108;2022-12-10T05:49:36;52.07;;;40.00;;
18360;SDS011;9308;48.550;9.108;2022-12-10T05:52:01;51.20;;;38.77;;
18360;SDS011;9308;48.550;9.108;2022-12-10T05:54:26;48.17;;;37.73;;
18360;SDS011;9308;48.550;9.108;2022-12-10T05:56:52;50.40;;;37.20;;
18360;SDS011;9308;48.550;9.108;2022-12-10T05:59:19;49.10;;;39.00;;
18360;SDS011;9308;48.550;9.108;2022-12-10T06:01:44;53.40;;;40.53;;
18360;SDS011;9308;48.550;9.108;2022-12-10T06:04:10;51.53;;;41.30;;
18360;SDS011;9308;48.550;9.108;2022-12-10T06:06:37;49.77;;;38.40;;
18360;SDS011;9308;48.550;9.108;2022-12-10T06:09:04;53.17;;;40.20;;
18360;SDS011;9308;48.550;9.108;2022-12-10T06:11:31;48.90;;;39.07;;
18360;SDS011;9308;48.550;9.108;2022-12-10T06:13:57;61.50;;;44.63;;
18360;SDS011;9308;48.550;9.108;2022-12-10T06:16:24;51.73;;;37.63;;
18360;SDS011;9308;48.550;9.108;2022-12-10T06:18:50;49.27;;;36.83;;
18360;SDS011;9308;48.550;9.108;2022-12-10T06:21:16;47.53;;;36.40;;
18360;SDS011;9308;48.550;9.108;2022-12-10T06:23:42;51.80;;;37.93;;
18360;SDS011;9308;48.550;9.108;2022-12-10T06:26:09;47.47;;;37.87;;
18360;SDS011;9308;48.550;9.108;2022-12-10T06:28:40;43.30;;;35.60;;
18360;SDS011;9308;48.550;9.108;2022-12-10T06:31:06;46.73;;;37.20;;
18360;SDS011;9308;48.550;9.108;2022-12-10T06:33:32;46.60;;;35.33;;
18360;SDS011;9308;48.550;9.108;2022-12-10T06:35:57;49.20;;;37.83;;
18360;SDS011;9308;48.550;9.108;2022-12-10T06:38:23;44.80;;;34.70;;
18360;SDS011;9308;48.550;9.108;2022-12-10T06:40:49;42.03;;;33.43;;
18360;SDS011;9308;48.550;9.108;2022-12-10T06:43:14;46.70;;;35.70;;
18360;SDS011;9308;48.550;9.108;2022-12-10T06:45:40;46.03;;;34.47;;
18360;SDS011;9308;48.550;9.108;2022-12-10T06:48:06;41.87;;;34.93;;
18360;SDS011;9308;48.550;9.108;2022-12-10T06:50:32;47.97;;;34.60;;
18360;SDS011;9308;48.550;9.108;2022-12-10T06:52:57;43.63;;;32.53;;
18360;SDS011;9308;48.550;9.108;2022-12-10T06:55:23;47.13;;;34.60;;
18360;SDS011;9308;48.550;9.108;2022-12-10T06:57:51;45.50;;;34.70;;
18360;SDS011;9308;48.550;9.108;2022-12-10T07:00:17;41.67;;;34.80;;
18360;SDS011;9308;48.550;9.108;2022-12-10T07:02:44;45.47;;;33.90;;
18360;SDS011;9308;48.550;9.108;2022-12-10T07:05:09;46.77;;;35.30;;
18360;SDS011;9308;48.550;9.108;2022-12-10T07:07:35;42.07;;;33.93;;
18360;SDS011;9308;48.550;9.108;2022-12-10T07:10:02;42.80;;;32.77;;
18360;SDS011;9308;48.550;9.108;2022-12-10T07:12:28;42.03;;;32.43;;
18360;SDS011;9308;48.550;9.108;2022-12-10T07:14:54;40.57;;;32.23;;
18360;SDS011;9308;48.550;9.108;2022-12-10T07:17:19;42.33;;;32.37;;
18360;SDS011;9308;48.550;9.108;2022-12-10T07:19:44;40.03;;;32.93;;
18360;SDS011;9308;48.550;9.108;2022-12-10T07:22:10;40.67;;;31.67;;
18360;SDS011;9308;48.550;9.108;2022-12-10T07:24:35;39.53;;;33.17;;
18360;SDS011;9308;48.550;9.108;2022-12-10T07:27:03;39.60;;;33.20;;
18360;SDS011;9308;48.550;9.108;2022-12-10T07:29:30;40.43;;;32.90;;
18360;SDS011;9308;48.550;9.108;2022-12-10T07:31:55;36.27;;;31.60;;
18360;SDS011;9308;48.550;9.108;2022-12-10T07:34:21;38.20;;;31.93;;
18360;SDS011;9308;48.550;9.108;2022-12-10T07:36:46;42.77;;;33.23;;
18360;SDS011;9308;48.550;9.108;2022-12-10T07:39:12;38.87;;;32.30;;
18360;SDS011;9308;48.550;9.108;2022-12-10T07:41:43;40.53;;;32.07;;
18360;SDS011;9308;48.550;9.108;2022-12-10T07:44:21;39.07;;;30.40;;
18360;SDS011;9308;48.550;9.108;2022-12-10T07:46:48;39.63;;;31.40;;
18360;SDS011;9308;48.550;9.108;2022-12-10T07:49:15;41.30;;;31.57;;
18360;SDS011;9308;48.550;9.108;2022-12-10T07:51:43;41.37;;;32.90;;
18360;SDS011;9308;48.550;9.108;2022-12-10T07:54:12;34.50;;;30.23;;
18360;SDS011;9308;48.550;9.108;2022-12-10T07:56:38;39.03;;;32.30;;
18360;SDS011;9308;48.550;9.108;2022-12-10T07:59:04;39.07;;;32.43;;
18360;SDS011;9308;48.550;9.108;2022-12-10T08:01:30;40.07;;;32.63;;
18360;SDS011;9308;48.550;9.108;2022-12-10T08:03:56;39.07;;;32.37;;
18360;SDS011;9308;48.550;9.108;2022-12-10T08:06:22;43.30;;;33.23;;
18360;SDS011;9308;48.550;9.108;2022-12-10T08:08:48;39.70;;;32.10;;
18360;SDS011;9308;48.550;9.108;2022-12-10T08:11:15;37.10;;;30.30;;
18360;SDS011;9308;48.550;9.108;2022-12-10T08:13:42;39.70;;;31.67;;
18360;SDS011;9308;48.550;9.108;2022-12-10T08:16:10;37.10;;;30.00;;
18360;SDS011;9308;48.550;9.108;2022-12-10T08:18:38;36.97;;;31.27;;
18360;SDS011;9308;48.550;9.108;2022-12-10T08:21:04;41.00;;;32.80;;
18360;SDS011;9308;48.550;9.108;2022-12-10T08:23:32;44.83;;;32.63;;
18360;SDS011;9308;48.550;9.108;2022-12-10T08:25:58;40.77;;;32.57;;
18360;SDS011;9308;48.550;9.108;2022-12-10T08:28:24;37.10;;;30.77;;
18360;SDS011;9308;48.550;9.108;2022-12-10T08:30:49;37.40;;;30.30;;
18360;SDS011;9308;48.550;9.108;2022-12-10T08:33:14;38.37;;;31.20;;
18360;SDS011;9308;48.550;9.108;2022-12-10T08:35:40;36.50;;;30.20;;
18360;SDS011;9308;48.550;9.108;2022-12-10T08:38:06;35.83;;;29.30;;
18360;SDS011;9308;48.550;9.108;2022-12-10T08:40:31;42.90;;;31.97;;
18360;SDS011;9308;48.550;9.108;2022-12-10T08:42:57;38.53;;;31.43;;
18360;SDS011;9308;48.550;9.108;2022-12-10T08:45:22;33.67;;;29.70;;
18360;SDS011;9308;48.550;9.108;2022-12-10T08:47:47;35.93;;;31.20;;
18360;SDS011;9308;48.550;9.108;2022-12-10T08:50:13;37.97;;;31.50;;
18360;SDS011;9308;48.550;9.108;2022-12-10T08:52:38;38.57;;;32.17;;
18360;SDS011;9308;48.550;9.108;2022-12-10T08:55:04;40.53;;;32.07;;
18360;SDS011;9308;48.550;9.108;2022-12-10T08:57:30;40.30;;;32.30;;
18360;SDS011;9308;48.550;9.108;2022-12-10T08:59:56;35.93;;;31.17;;
18360;SDS011;9308;48.550;9.108;2022-12-10T09:02:21;35.13;;;29.10;;
18360;SDS011;9308;48.550;9.108;2022-12-10T09:04:46;35.80;;;29.37;;
18360;SDS011;9308;48.550;9.108;2022-12-10T09:07:14;39.63;;;31.50;;
18360;SDS011;9308;48.550;9.108;2022-12-10T09:09:40;38.63;;;30.30;;
18360;SDS011;9308;48.550;9.108;2022-12-10T09:12:05;35.57;;;29.40;;
18360;SDS011;9308;48.550;9.108;2022-12-10T09:14:30;40.30;;;30.23;;
18360;SDS011;9308;48.550;9.108;2022-12-10T09:16:57;33.53;;;28.67;;
18360;SDS011;9308;48.550;9.108;2022-12-10T09:19:22;36.97;;;30.17;;
18360;SDS011;9308;48.550;9.108;2022-12-10T09:21:47;40.80;;;31.73;;
18360;SDS011;9308;48.550;9.108;2022-12-10T09:24:13;35.67;;;31.03;;
18360;SDS011;9308;48.550;9.108;2022-12-10T09:26:39;35.17;;;30.07;;
18360;SDS011;9308;48.550;9.108;2022-12-10T09:29:04;35.07;;;29.80;;
18360;SDS011;9308;48.550;9.108;2022-12-10T09:31:30;33.27;;;27.87;;
18360;SDS011;9308;48.550;9.108;2022-12-10T09:33:55;35.50;;;28.33;;
18360;SDS011;9308;48.550;9.108;2022-12-10T09:36:21;33.17;;;27.97;;
18360;SDS011;9308;48.550;9.108;2022-12-10T09:38:47;35.30;;;27.83;;
18360;SDS011;9308;48.550;9.108;2022-12-10T09:41:26;40.27;;;35.03;;
18360;SDS011;9308;48.550;9.108;2022-12-10T09:44:03;39.20;;;32.73;;
18360;SDS011;9308;48.550;9.108;2022-12-10T09:46:42;40.43;;;31.20;;
18360;SDS011;9308;48.550;9.108;2022-12-10T09:49:30;35.23;;;30.33;;
18360;SDS011;9308;48.550;9.108;2022-12-10T09:52:00;36.30;;;31.50;;
18360;SDS011;9308;48.550;9.108;2022-12-10T09:54:38;36.60;;;29.10;;
18360;SDS011;9308;48.550;9.108;2022-12-10T09:57:07;33.13;;;28.57;;
18360;SDS011;9308;48.550;9.108;2022-12-10T09:59:41;34.53;;;28.00;;
18360;SDS011;9308;48.550;9.108;2022-12-10T10:04:58;35.90;;;29.60;;
18360;SDS011;9308;48.550;9.108;2022-12-10T10:07:31;35.30;;;28.43;;
18360;SDS011;9308;48.550;9.108;2022-12-10T10:10:01;32.00;;;27.77;;
18360;SDS011;9308;48.550;9.108;2022-12-10T10:12:31;34.30;;;27.63;;
18360;SDS011;9308;48.550;9.108;2022-12-10T10:14:59;34.20;;;27.77;;
18360;SDS011;9308;48.550;9.108;2022-12-10T10:17:37;31.70;;;27.17;;
18360;SDS011;9308;48.550;9.108;2022-12-10T10:20:04;32.30;;;27.27;;
18360;SDS011;9308;48.550;9.108;2022-12-10T10:22:30;31.10;;;26.03;;
18360;SDS011;9308;48.550;9.108;2022-12-10T10:24:56;29.17;;;25.47;;
18360;SDS011;9308;48.550;9.108;2022-12-10T10:27:26;32.20;;;26.67;;
18360;SDS011;9308;48.550;9.108;2022-12-10T10:29:55;34.33;;;28.60;;
18360;SDS011;9308;48.550;9.108;2022-12-10T10:32:24;34.17;;;27.60;;
18360;SDS011;9308;48.550;9.108;2022-12-10T10:34:52;29.53;;;25.20;;
18360;SDS011;9308;48.550;9.108;2022-12-10T10:37:21;33.43;;;27.23;;
18360;SDS011;9308;48.550;9.108;2022-12-10T10:39:50;33.33;;;27.13;;
18360;SDS011;9308;48.550;9.108;2022-12-10T10:42:28;30.90;;;26.87;;
18360;SDS011;9308;48.550;9.108;2022-12-10T10:45:04;30.17;;;26.97;;
18360;SDS011;9308;48.550;9.108;2022-12-10T10:47:32;33.00;;;26.73;;
18360;SDS011;9308;48.550;9.108;2022-12-10T10:49:59;29.23;;;24.07;;
18360;SDS011;9308;48.550;9.108;2022-12-10T10:52:30;30.30;;;25.90;;
18360;SDS011;9308;48.550;9.108;2022-12-10T10:55:00;31.93;;;26.90;;
18360;SDS011;9308;48.550;9.108;2022-12-10T10:57:33;33.40;;;27.83;;
18360;SDS011;9308;48.550;9.108;2022-12-10T11:00:06;34.13;;;27.17;;
18360;SDS011;9308;48.550;9.108;2022-12-10T11:02:42;33.23;;;27.20;;
18360;SDS011;9308;48.550;9.108;2022-12-10T11:05:14;31.40;;;26.83;;
18360;SDS011;9308;48.550;9.108;2022-12-10T11:07:42;31.67;;;27.03;;
18360;SDS011;9308;48.550;9.108;2022-12-10T11:10:18;32.70;;;26.90;;
18360;SDS011;9308;48.550;9.108;2022-12-10T11:12:56;30.93;;;26.90;;
18360;SDS011;9308;48.550;9.108;2022-12-10T11:18:02;31.37;;;26.93;;
18360;SDS011;9308;48.550;9.108;2022-12-10T11:20:56;33.97;;;28.77;;
18360;SDS011;9308;48.550;9.108;2022-12-10T11:23:23;28.70;;;24.50;;
18360;SDS011;9308;48.550;9.108;2022-12-10T11:57:44;26.67;;;22.80;;
18360;SDS011;9308;48.550;9.108;2022-12-10T12:00:25;33.90;;;26.27;;
18360;SDS011;9308;48.550;9.108;2022-12-10T12:05:59;27.47;;;24.47;;
18360;SDS011;9308;48.550;9.108;2022-12-10T12:14:36;27.30;;;24.30;;
18360;SDS011;9308;48.550;9.108;2022-12-10T12:17:32;25.33;;;22.60;;
18360;SDS011;9308;48.550;9.108;2022-12-10T12:20:11;25.60;;;21.73;;
18360;SDS011;9308;48.550;9.108;2022-12-10T12:23:15;25.53;;;22.67;;
18360;SDS011;9308;48.550;9.108;2022-12-10T12:25:47;31.70;;;23.80;;
18360;SDS011;9308;48.550;9.108;2022-12-10T12:28:25;27.27;;;24.10;;
18360;SDS011;9308;48.550;9.108;2022-12-10T12:31:01;58.23;;;51.93;;
18360;SDS011;9308;48.550;9.108;2022-12-10T12:33:47;30.20;;;24.53;;
18360;SDS011;9308;48.550;9.108;2022-12-10T12:36:22;25.00;;;22.33;;
18360;SDS011;9308;48.550;9.108;2022-12-10T12:41:36;26.30;;;22.77;;
18360;SDS011;9308;48.550;9.108;2022-12-10T12:44:22;38.60;;;31.97;;
18360;SDS011;9308;48.550;9.108;2022-12-10T12:46:55;26.23;;;22.50;;
18360;SDS011;9308;48.550;9.108;2022-12-10T12:49:31;28.80;;;23.27;;
18360;SDS011;9308;48.550;9.108;2022-12-10T12:52:05;20.77;;;18.57;;
18360;SDS011;9308;48.550;9.108;2022-12-10T12:54:35;23.00;;;18.60;;
18360;SDS011;9308;48.550;9.108;2022-12-10T12:57:10;22.10;;;19.27;;
18360;SDS011;9308;48.550;9.108;2022-12-10T13:05:27;27.10;;;23.73;;
18360;SDS011;9308;48.550;9.108;2022-12-10T13:14:28;42.30;;;31.13;;
18360;SDS011;9308;48.550;9.108;2022-12-10T13:16:35;62.93;;;45.33;;
18360;SDS011;9308;48.550;9.108;2022-12-10T13:41:09;26.33;;;22.70;;
18360;SDS011;9308;48.550;9.108;2022-12-10T13:43:59;28.97;;;25.47;;
18360;SDS011;9308;48.550;9.108;2022-12-10T13:49:29;30.20;;;23.87;;
18360;SDS011;9308;48.550;9.108;2022-12-10T13:52:03;32.63;;;26.97;;
18360;SDS011;9308;48.550;9.108;2022-12-10T14:02:46;27.37;;;23.17;;
18360;SDS011;9308;48.550;9.108;2022-12-10T14:05:24;27.33;;;24.30;;
18360;SDS011;9308;48.550;9.108;2022-12-10T14:07:53;23.37;;;20.07;;
18360;SDS011;9308;48.550;9.108;2022-12-10T14:10:22;24.20;;;21.33;;
18360;SDS011;9308;48.550;9.108;2022-12-10T14:12:53;24.80;;;22.20;;
18360;SDS011;9308;48.550;9.108;2022-12-10T14:15:20;26.73;;;22.73;;
18360;SDS011;9308;48.550;9.108;2022-12-10T14:17:50;23.33;;;20.20;;
18360;SDS011;9308;48.550;9.108;2022-12-10T14:20:21;26.50;;;22.03;;
18360;SDS011;9308;48.550;9.108;2022-12-10T14:22:54;27.40;;;22.30;;
18360;SDS011;9308;48.550;9.108;2022-12-10T14:25:43;29.47;;;23.67;;
18360;SDS011;9308;48.550;9.108;2022-12-10T14:28:15;51.77;;;37.30;;
18360;SDS011;9308;48.550;9.108;2022-12-10T14:30:43;28.13;;;23.30;;
18360;SDS011;9308;48.550;9.108;2022-12-10T14:33:15;29.23;;;23.27;;
18360;SDS011;9308;48.550;9.108;2022-12-10T14:35:46;30.67;;;25.67;;
18360;SDS011;9308;48.550;9.108;2022-12-10T14:38:17;29.53;;;23.70;;
18360;SDS011;9308;48.550;9.108;2022-12-10T14:40:45;28.70;;;24.30;;
18360;SDS011;9308;48.550;9.108;2022-12-10T14:43:13;28.83;;;24.30;;
18360;SDS011;9308;48.550;9.108;2022-12-10T14:46:00;26.07;;;22.17;;
18360;SDS011;9308;48.550;9.108;2022-12-10T14:48:27;33.50;;;23.70;;
18360;SDS011;9308;48.550;9.108;2022-12-10T14:50:53;29.87;;;23.07;;
18360;SDS011;9308;48.550;9.108;2022-12-10T14:53:25;31.23;;;26.33;;
18360;SDS011;9308;48.550;9.108;2022-12-10T14:56:04;31.30;;;24.57;;
18360;SDS011;9308;48.550;9.108;2022-12-10T14:58:36;32.00;;;26.70;;
18360;SDS011;9308;48.550;9.108;2022-12-10T15:01:05;32.13;;;26.90;;
18360;SDS011;9308;48.550;9.108;2022-12-10T15:03:32;35.80;;;32.20;;
18360;SDS011;9308;48.550;9.108;2022-12-10T15:06:01;43.70;;;39.80;;
18360;SDS011;9308;48.550;9.108;2022-12-10T15:08:32;34.70;;;30.90;;
18360;SDS011;9308;48.550;9.108;2022-12-10T15:10:58;34.43;;;30.67;;
18360;SDS011;9308;48.550;9.108;2022-12-10T15:13:32;33.73;;;30.20;;
18360;SDS011;9308;48.550;9.108;2022-12-10T15:16:02;31.20;;;28.00;;
18360;SDS011;9308;48.550;9.108;2022-12-10T15:18:30;42.40;;;38.37;;
18360;SDS011;9308;48.550;9.108;2022-12-10T15:23:31;31.33;;;26.07;;
18360;SDS011;9308;48.550;9.108;2022-12-10T15:26:00;30.60;;;26.17;;
18360;SDS011;9308;48.550;9.108;2022-12-10T15:28:38;29.43;;;24.87;;
18360;SDS011;9308;48.550;9.108;2022-12-10T15:31:21;27.93;;;24.30;;
18360;SDS011;9308;48.550;9.108;2022-12-10T15:34:05;26.63;;;23.47;;
18360;SDS011;9308;48.550;9.108;2022-12-10T15:41:45;29.37;;;26.17;;
18360;SDS011;9308;48.550;9.108;2022-12-10T15:47:04;33.10;;;25.40;;
18360;SDS011;9308;48.550;9.108;2022-12-10T15:49:36;26.33;;;23.40;;
18360;SDS011;9308;48.550;9.108;2022-12-10T15:52:02;31.77;;;25.80;;
18360;SDS011;9308;48.550;9.108;2022-12-10T15:54:31;29.67;;;24.63;;
18360;SDS011;9308;48.550;9.108;2022-12-10T15:57:09;27.47;;;24.40;;
18360;SDS011;9308;48.550;9.108;2022-12-10T15:59:45;31.87;;;25.50;;
18360;SDS011;9308;48.550;9.108;2022-12-10T16:02:23;30.27;;;24.57;;
18360;SDS011;9308;48.550;9.108;2022-12-10T16:04:59;28.00;;;24.53;;
18360;SDS011;9308;48.550;9.108;2022-12-10T16:07:24;32.03;;;25.90;;
18360;SDS011;9308;48.550;9.108;2022-12-10T16:09:50;27.03;;;23.60;;
18360;SDS011;9308;48.550;9.108;2022-12-10T16:12:15;32.30;;;26.30;;
18360;SDS011;9308;48.550;9.108;2022-12-10T16:14:52;28.73;;;24.60;;
18360;SDS011;9308;48.550;9.108;2022-12-10T16:17:28;29.07;;;25.00;;
18360;SDS011;9308;48.550;9.108;2022-12-10T16:19:58;30.13;;;25.30;;
18360;SDS011;9308;48.550;9.108;2022-12-10T16:22:24;27.70;;;23.27;;
18360;SDS011;9308;48.550;9.108;2022-12-10T16:24:50;30.47;;;24.90;;
18360;SDS011;9308;48.550;9.108;2022-12-10T16:27:15;31.50;;;25.93;;
18360;SDS011;9308;48.550;9.108;2022-12-10T16:29:41;31.40;;;25.30;;
18360;SDS011;9308;48.550;9.108;2022-12-10T16:32:11;30.77;;;25.53;;
18360;SDS011;9308;48.550;9.108;2022-12-10T16:34:37;32.70;;;25.70;;
18360;SDS011;9308;48.550;9.108;2022-12-10T16:37:04;34.30;;;29.63;;
18360;SDS011;9308;48.550;9.108;2022-12-10T16:39:30;40.10;;;32.50;;
18360;SDS011;9308;48.550;9.108;2022-12-10T16:41:56;33.40;;;27.73;;
18360;SDS011;9308;48.550;9.108;2022-12-10T16:44:22;39.87;;;31.40;;